Time,TemperatureF,DewpointF,PressureIn,WindDirection,WindDirectionDegrees,WindSpeedMPH,WindSpeedGustMPH,Humidity,HourlyPrecipIn,Conditions,Clouds,dailyrainin,SoftwareType,DateUTC
2014-12-27 00:01:00,37.0,32.0,30.21,SSW,198,3.0,8.0,81,0.00,,,0.00,weatherlink.com 1.10,2014-12-27 05:01:00,
2014-12-27 00:16:00,36.4,31.0,30.21,South,177,3.0,7.0,82,0.00,,,0.00,weatherlink.com 1.10,2014-12-27 05:16:00,
2014-12-27 00:31:00,36.8,32.0,30.21,SSE,158,3.0,7.0,82,0.00,,,0.00,weatherlink.com 1.10,2014-12-27 05:31:00,
2014-12-27 00:46:00,36.7,32.0,30.21,South,170,4.0,7.0,82,0.00,,,0.00,weatherlink.com 1.10,2014-12-27 05:46:00,
2014-12-27 01:01:00,37.5,32.0,30.21,SSE,168,1.0,8.0,80,0.00,,,0.00,weatherlink.com 1.10,2014-12-27 06:01:00,
2014-12-27 01:16:00,37.0,31.0,30.21,SSW,193,4.0,6.0,79,0.00,,,0.00,weatherlink.com 1.10,2014-12-27 06:16:00,
2014-12-27 01:31:00,36.9,31.0,30.22,South,189,5.0,6.0,80,0.00,,,0.00,weatherlink.com 1.10,2014-12-27 06:31:00,
2014-12-27 01:46:00,37.4,31.0,30.21,SSE,153,2.0,5.0,79,0.00,,,0.00,weatherlink.com 1.10,2014-12-27 06:46:00,
2014-12-27 02:02:00,37.8,32.0,30.22,South,169,1.0,3.0,78,0.00,,,0.00,weatherlink.com 1.10,2014-12-27 07:02:00,
2014-12-27 02:16:00,37.0,31.0,30.23,SE,142,2.0,5.0,79,0.00,,,0.00,weatherlink.com 1.10,2014-12-27 07:16:00,
2014-12-27 02:32:00,36.2,31.0,30.23,SSE,153,1.0,4.0,81,0.00,,,0.00,weatherlink.com 1.10,2014-12-27 07:32:00,
2014-12-27 02:47:00,36.3,31.0,30.22,SE,136,3.0,4.0,82,0.00,,,0.00,weatherlink.com 1.10,2014-12-27 07:47:00,
2014-12-27 03:02:00,36.0,31.0,30.23,SE,146,1.0,4.0,81,0.00,,,0.00,weatherlink.com 1.10,2014-12-27 08:02:00,
2014-12-27 03:17:00,36.0,31.0,30.23,SE,125,1.0,4.0,82,0.00,,,0.00,weatherlink.com 1.10,2014-12-27 08:17:00,
2014-12-27 03:32:00,36.0,31.0,30.23,SE,141,3.0,5.0,82,0.00,,,0.00,weatherlink.com 1.10,2014-12-27 08:32:00,
2014-12-27 03:47:00,35.7,30.0,30.22,SE,126,3.0,4.0,81,0.00,,,0.00,weatherlink.com 1.10,2014-12-27 08:47:00,
2014-12-27 04:02:00,34.4,30.0,30.22,SE,138,4.0,5.0,85,0.00,,,0.00,weatherlink.com 1.10,2014-12-27 09:02:00,
2014-12-27 04:17:00,34.5,31.0,30.22,SSE,152,4.0,7.0,85,0.00,,,0.00,weatherlink.com 1.10,2014-12-27 09:17:00,
2014-12-27 04:32:00,34.3,31.0,30.21,SSE,160,4.0,5.0,86,0.00,,,0.00,weatherlink.com 1.10,2014-12-27 09:32:00,
2014-12-27 04:47:00,36.8,32.0,30.23,South,177,3.0,10.0,82,0.00,,,0.00,weatherlink.com 1.10,2014-12-27 09:47:00,
2014-12-27 05:02:00,39.4,33.0,30.22,South,179,3.0,11.0,77,0.00,,,0.00,weatherlink.com 1.10,2014-12-27 10:02:00,
2014-12-27 05:17:00,39.7,33.0,30.23,South,188,1.0,9.0,76,0.00,,,0.00,weatherlink.com 1.10,2014-12-27 10:17:00,
2014-12-27 05:32:00,39.9,33.0,30.22,South,181,2.0,2.0,76,0.00,,,0.00,weatherlink.com 1.10,2014-12-27 10:32:00,
2014-12-27 05:47:00,38.4,32.0,30.23,South,181,1.0,2.0,77,0.00,,,0.00,weatherlink.com 1.10,2014-12-27 10:47:00,
2014-12-27 06:02:00,36.0,30.0,30.23,SSE,159,2.0,4.0,80,0.00,,,0.00,weatherlink.com 1.10,2014-12-27 11:02:00,
2014-12-27 06:17:00,34.8,30.0,30.23,SSW,195,2.0,5.0,84,0.00,,,0.00,weatherlink.com 1.10,2014-12-27 11:17:00,
2014-12-27 06:32:00,34.8,30.0,30.23,SSE,147,4.0,8.0,83,0.00,,,0.00,weatherlink.com 1.10,2014-12-27 11:32:00,
2014-12-27 06:47:00,34.2,31.0,30.23,SSE,147,5.0,7.0,86,0.00,,,0.00,weatherlink.com 1.10,2014-12-27 11:47:00,
2014-12-27 07:02:00,35.4,31.0,30.23,SE,144,5.0,7.0,84,0.00,,,0.00,weatherlink.com 1.10,2014-12-27 12:02:00,
2014-12-27 07:17:00,36.1,31.0,30.23,SE,132,0.0,5.0,82,0.00,,,0.00,weatherlink.com 1.10,2014-12-27 12:17:00,
2014-12-27 07:32:00,35.1,30.0,30.24,West,260,1.0,4.0,83,0.00,,,0.00,weatherlink.com 1.10,2014-12-27 12:32:00,
2014-12-27 07:47:00,34.0,30.0,30.24,West,260,2.0,2.0,85,0.00,,,0.00,weatherlink.com 1.10,2014-12-27 12:47:00,
2014-12-27 08:02:00,33.4,30.0,30.24,South,190,2.0,3.0,86,0.00,,,0.00,weatherlink.com 1.10,2014-12-27 13:02:00,
2014-12-27 08:17:00,33.4,30.0,30.25,SSE,153,3.0,8.0,88,0.00,,,0.00,weatherlink.com 1.10,2014-12-27 13:17:00,
2014-12-27 08:32:00,35.4,32.0,30.26,South,178,8.0,9.0,86,0.00,,,0.00,weatherlink.com 1.10,2014-12-27 13:32:00,
2014-12-27 08:47:00,35.7,31.0,30.26,SSW,193,5.0,10.0,84,0.00,,,0.00,weatherlink.com 1.10,2014-12-27 13:47:00,
2014-12-27 09:02:00,35.9,32.0,30.26,SSE,148,5.0,8.0,86,0.00,,,0.00,weatherlink.com 1.10,2014-12-27 14:02:00,
2014-12-27 09:17:00,37.2,33.0,30.27,South,188,4.0,8.0,83,0.00,,,0.00,weatherlink.com 1.10,2014-12-27 14:17:00,
2014-12-27 09:32:00,39.7,33.0,30.28,South,188,5.0,7.0,76,0.00,,,0.00,weatherlink.com 1.10,2014-12-27 14:32:00,
2014-12-27 09:47:00,42.5,34.0,30.28,South,180,3.0,6.0,71,0.00,,,0.00,weatherlink.com 1.10,2014-12-27 14:47:00,
2014-12-27 10:03:00,44.2,35.0,30.29,SSW,199,4.0,8.0,69,0.00,,,0.00,weatherlink.com 1.10,2014-12-27 15:03:00,
2014-12-27 10:17:00,44.7,34.0,30.28,South,176,4.0,7.0,67,0.00,,,0.00,weatherlink.com 1.10,2014-12-27 15:17:00,
2014-12-27 10:33:00,45.5,35.0,30.27,SSE,148,2.0,7.0,67,0.00,,,0.00,weatherlink.com 1.10,2014-12-27 15:33:00,
2014-12-27 10:48:00,46.5,36.0,30.26,SE,141,5.0,9.0,68,0.00,,,0.00,weatherlink.com 1.10,2014-12-27 15:48:00,
2014-12-27 11:03:00,47.8,36.0,30.25,SE,131,7.0,8.0,63,0.00,,,0.00,weatherlink.com 1.10,2014-12-27 16:03:00,
2014-12-27 11:18:00,48.8,36.0,30.25,South,178,2.0,8.0,62,0.00,,,0.00,weatherlink.com 1.10,2014-12-27 16:18:00,
2014-12-27 11:33:00,50.0,36.0,30.23,SSE,158,5.0,8.0,58,0.00,,,0.00,weatherlink.com 1.10,2014-12-27 16:33:00,
2014-12-27 11:48:00,51.2,35.0,30.22,SSE,159,5.0,10.0,54,0.00,,,0.00,weatherlink.com 1.10,2014-12-27 16:48:00,
2014-12-27 12:03:00,52.9,34.0,30.21,South,184,1.0,9.0,49,0.00,,,0.00,weatherlink.com 1.10,2014-12-27 17:03:00,
2014-12-27 12:18:00,53.4,36.0,30.20,SSW,200,3.0,8.0,52,0.00,,,0.00,weatherlink.com 1.10,2014-12-27 17:18:00,
2014-12-27 12:34:00,53.9,36.0,30.20,South,175,3.0,7.0,51,0.00,,,0.00,weatherlink.com 1.10,2014-12-27 17:34:00,
2014-12-27 12:48:00,54.6,37.0,30.18,SE,146,3.0,9.0,51,0.00,,,0.00,weatherlink.com 1.10,2014-12-27 17:48:00,
2014-12-27 13:03:00,54.8,37.0,30.17,South,180,4.0,8.0,51,0.00,,,0.00,weatherlink.com 1.10,2014-12-27 18:03:00,